Lincoln Park, NJ

05:57 AM EDT on Setembro 30, 2016 (GMT -0400)
Broad Acres | | Change Station

Elev 175 ft 40.93 °N, 74.29 °W | Updated 4 seconds ago

Overcast
Encapotado
57.4 °F
Feels Like 57.4 °F
N
1.1
Vento Variable Vento from NL
Gusts 2.5 mph

Hoxe
High -- | Low -- °F
--% Chance of Precip.
Yesterday
High -- | Low -- °F
Precip. -- pol
Presión 30.32 pol
Visibilidade 10.0 Millas
Nubes Encapotado 2100 ft
Nivel de Rosada 50 °F
Humidade 77%
Rainfall 0.00 pol
Fondo da neve Not available.
6:53 AM 6:40 PM
Waning Crescent, 0% visible
METAR KCDW 300953Z AUTO 06010G19KT 10SM OVC021 14/09 A3031 RMK AO2 SLP268 T01390089 TSNO
Presión 30.32 pol
Visibilidade 10.0 Millas
Nubes Encapotado 2100 ft
Nivel de Rosada 50 °F
Humidade 77%
Rainfall 0.00 pol
Fondo da neve Not available.
6:53 AM 6:40 PM
Waning Crescent, 0% visible
METAR KCDW 300953Z AUTO 06010G19KT 10SM OVC021 14/09 A3031 RMK AO2 SLP268 T01390089 TSNO

10-Day Weather Forecast

Almanac

Astronomía

Sep. 30, 2016 Rise Set
Tempo actual
Crepúsculo civil
Crepúsculo náutico
Crepúsculo astronómico
Lúa
Lonxitude da luz visíbel
Length of Day
Tomorrow will be .
, % of the Moon is Illuminated

Today's Extremes

State Highs State Lows

Community

WunderPhotos

Upload Photos

1,942,684 photos uploaded!

WunderBlog® & News

Nearby

Air Quality

  Air Quality AQ Index Pollutant
Not available.

Snow Depth

Station Depth Elevation

Earthquake Activity

Cidade Distance Mag. Time & Date
Minimum magnitude displayed is 2.5.

Coastal Water Temperatures

Lugar Temperatura

Stations

Nearby Weather Stations

Station Location Temp Vento Xeado Nivel de Rosada Humidade Vento Precip. Elev Actualización Type
                   

Watches & Warnings

There are currently no watches in effect.